sensor_id;sensor_type;location;lat;lon;timestamp;P1;durP1;ratioP1;P2;durP2;ratioP2
76208;SDS011;64990;51.698;-0.292;2023-09-08T00:02:07;60.58;;;35.33;;
76208;SDS011;64990;51.698;-0.292;2023-09-08T00:04:33;68.13;;;32.90;;
76208;SDS011;64990;51.698;-0.292;2023-09-08T00:06:59;66.32;;;32.90;;
76208;SDS011;64990;51.698;-0.292;2023-09-08T00:09:25;50.92;;;31.58;;
76208;SDS011;64990;51.698;-0.292;2023-09-08T00:11:51;56.38;;;30.52;;
76208;SDS011;64990;51.698;-0.292;2023-09-08T00:14:19;47.33;;;28.92;;
76208;SDS011;64990;51.698;-0.292;2023-09-08T00:16:45;58.25;;;32.40;;
76208;SDS011;64990;51.698;-0.292;2023-09-08T00:19:11;45.85;;;26.88;;
76208;SDS011;64990;51.698;-0.292;2023-09-08T00:21:37;55.55;;;29.27;;
76208;SDS011;64990;51.698;-0.292;2023-09-08T00:24:04;54.28;;;29.83;;
76208;SDS011;64990;51.698;-0.292;2023-09-08T00:26:30;62.05;;;35.40;;
76208;SDS011;64990;51.698;-0.292;2023-09-08T00:28:56;59.22;;;36.00;;
76208;SDS011;64990;51.698;-0.292;2023-09-08T00:31:22;60.17;;;33.25;;
76208;SDS011;64990;51.698;-0.292;2023-09-08T00:33:48;54.60;;;30.73;;
76208;SDS011;64990;51.698;-0.292;2023-09-08T00:36:14;57.10;;;31.38;;
76208;SDS011;64990;51.698;-0.292;2023-09-08T00:38:40;83.03;;;32.97;;
76208;SDS011;64990;51.698;-0.292;2023-09-08T00:41:06;43.63;;;27.42;;
76208;SDS011;64990;51.698;-0.292;2023-09-08T00:43:32;45.22;;;28.42;;
76208;SDS011;64990;51.698;-0.292;2023-09-08T00:45:58;47.95;;;26.48;;
76208;SDS011;64990;51.698;-0.292;2023-09-08T00:48:27;55.42;;;28.40;;
76208;SDS011;64990;51.698;-0.292;2023-09-08T00:50:53;47.15;;;25.05;;
76208;SDS011;64990;51.698;-0.292;2023-09-08T00:53:19;35.67;;;23.55;;
76208;SDS011;64990;51.698;-0.292;2023-09-08T00:55:46;40.92;;;22.92;;
76208;SDS011;64990;51.698;-0.292;2023-09-08T00:58:13;43.53;;;23.40;;
76208;SDS011;64990;51.698;-0.292;2023-09-08T01:00:39;45.83;;;26.60;;
76208;SDS011;64990;51.698;-0.292;2023-09-08T01:03:05;47.10;;;28.83;;
76208;SDS011;64990;51.698;-0.292;2023-09-08T01:05:31;55.97;;;30.35;;
76208;SDS011;64990;51.698;-0.292;2023-09-08T01:07:58;52.35;;;28.45;;
76208;SDS011;64990;51.698;-0.292;2023-09-08T01:10:24;45.65;;;26.80;;
76208;SDS011;64990;51.698;-0.292;2023-09-08T01:12:51;53.00;;;26.65;;
76208;SDS011;64990;51.698;-0.292;2023-09-08T01:15:17;50.17;;;30.52;;
76208;SDS011;64990;51.698;-0.292;2023-09-08T01:17:43;56.20;;;34.65;;
76208;SDS011;64990;51.698;-0.292;2023-09-08T01:20:17;51.92;;;31.27;;
76208;SDS011;64990;51.698;-0.292;2023-09-08T01:25:22;52.60;;;31.95;;
76208;SDS011;64990;51.698;-0.292;2023-09-08T01:27:58;46.67;;;27.27;;
76208;SDS011;64990;51.698;-0.292;2023-09-08T01:30:25;47.40;;;26.38;;
76208;SDS011;64990;51.698;-0.292;2023-09-08T01:32:52;48.47;;;26.80;;
76208;SDS011;64990;51.698;-0.292;2023-09-08T01:35:19;41.22;;;24.00;;
76208;SDS011;64990;51.698;-0.292;2023-09-08T01:37:46;52.65;;;25.88;;
76208;SDS011;64990;51.698;-0.292;2023-09-08T01:40:12;46.15;;;24.98;;
76208;SDS011;64990;51.698;-0.292;2023-09-08T01:42:38;38.30;;;25.52;;
76208;SDS011;64990;51.698;-0.292;2023-09-08T01:45:05;47.92;;;23.77;;
76208;SDS011;64990;51.698;-0.292;2023-09-08T01:47:31;43.63;;;24.35;;
76208;SDS011;64990;51.698;-0.292;2023-09-08T01:49:57;37.78;;;22.83;;
76208;SDS011;64990;51.698;-0.292;2023-09-08T01:52:23;43.67;;;23.20;;
76208;SDS011;64990;51.698;-0.292;2023-09-08T01:54:50;38.47;;;22.88;;
76208;SDS011;64990;51.698;-0.292;2023-09-08T01:57:15;39.33;;;22.77;;
76208;SDS011;64990;51.698;-0.292;2023-09-08T01:59:41;44.30;;;23.98;;
76208;SDS011;64990;51.698;-0.292;2023-09-08T02:02:09;43.33;;;23.85;;
76208;SDS011;64990;51.698;-0.292;2023-09-08T02:04:35;35.08;;;23.15;;
76208;SDS011;64990;51.698;-0.292;2023-09-08T02:07:01;52.65;;;28.70;;
76208;SDS011;64990;51.698;-0.292;2023-09-08T02:09:35;39.63;;;25.08;;
76208;SDS011;64990;51.698;-0.292;2023-09-08T02:12:01;39.00;;;21.92;;
76208;SDS011;64990;51.698;-0.292;2023-09-08T02:14:27;34.17;;;21.02;;
76208;SDS011;64990;51.698;-0.292;2023-09-08T02:16:53;34.20;;;20.33;;
76208;SDS011;64990;51.698;-0.292;2023-09-08T02:19:19;36.88;;;19.45;;
76208;SDS011;64990;51.698;-0.292;2023-09-08T02:21:45;35.92;;;20.08;;
76208;SDS011;64990;51.698;-0.292;2023-09-08T02:24:11;45.88;;;25.38;;
76208;SDS011;64990;51.698;-0.292;2023-09-08T02:26:38;43.50;;;29.05;;
76208;SDS011;64990;51.698;-0.292;2023-09-08T02:29:04;47.63;;;29.23;;
76208;SDS011;64990;51.698;-0.292;2023-09-08T02:31:30;42.40;;;26.20;;
76208;SDS011;64990;51.698;-0.292;2023-09-08T02:33:56;42.83;;;24.05;;
76208;SDS011;64990;51.698;-0.292;2023-09-08T02:36:22;39.85;;;22.08;;
76208;SDS011;64990;51.698;-0.292;2023-09-08T02:38:54;28.48;;;17.10;;
76208;SDS011;64990;51.698;-0.292;2023-09-08T02:41:21;36.30;;;17.25;;
76208;SDS011;64990;51.698;-0.292;2023-09-08T02:43:47;26.40;;;17.15;;
76208;SDS011;64990;51.698;-0.292;2023-09-08T02:46:13;26.17;;;14.63;;
76208;SDS011;64990;51.698;-0.292;2023-09-08T02:48:39;31.17;;;16.55;;
76208;SDS011;64990;51.698;-0.292;2023-09-08T02:51:05;25.58;;;15.60;;
76208;SDS011;64990;51.698;-0.292;2023-09-08T02:53:31;26.55;;;15.85;;
76208;SDS011;64990;51.698;-0.292;2023-09-08T02:55:58;23.45;;;12.38;;
76208;SDS011;64990;51.698;-0.292;2023-09-08T02:58:24;18.15;;;12.75;;
76208;SDS011;64990;51.698;-0.292;2023-09-08T03:00:50;19.92;;;12.10;;
76208;SDS011;64990;51.698;-0.292;2023-09-08T03:03:19;20.60;;;14.05;;
76208;SDS011;64990;51.698;-0.292;2023-09-08T03:05:45;26.10;;;16.05;;
76208;SDS011;64990;51.698;-0.292;2023-09-08T03:08:12;37.03;;;16.02;;
76208;SDS011;64990;51.698;-0.292;2023-09-08T03:10:38;26.98;;;14.45;;
76208;SDS011;64990;51.698;-0.292;2023-09-08T03:13:04;26.90;;;14.05;;
76208;SDS011;64990;51.698;-0.292;2023-09-08T03:15:30;31.50;;;16.23;;
76208;SDS011;64990;51.698;-0.292;2023-09-08T03:17:57;24.17;;;15.02;;
76208;SDS011;64990;51.698;-0.292;2023-09-08T03:20:23;26.70;;;16.65;;
76208;SDS011;64990;51.698;-0.292;2023-09-08T03:22:51;25.48;;;17.00;;
76208;SDS011;64990;51.698;-0.292;2023-09-08T03:25:17;25.65;;;18.00;;
76208;SDS011;64990;51.698;-0.292;2023-09-08T03:27:43;25.35;;;15.32;;
76208;SDS011;64990;51.698;-0.292;2023-09-08T03:30:09;23.35;;;14.18;;
76208;SDS011;64990;51.698;-0.292;2023-09-08T03:32:35;31.92;;;15.18;;
76208;SDS011;64990;51.698;-0.292;2023-09-08T03:35:01;25.98;;;15.43;;
76208;SDS011;64990;51.698;-0.292;2023-09-08T03:37:29;38.25;;;16.77;;
76208;SDS011;64990;51.698;-0.292;2023-09-08T03:39:55;30.70;;;16.42;;
76208;SDS011;64990;51.698;-0.292;2023-09-08T03:42:21;27.10;;;15.07;;
76208;SDS011;64990;51.698;-0.292;2023-09-08T03:44:47;26.45;;;15.43;;
76208;SDS011;64990;51.698;-0.292;2023-09-08T03:47:13;27.88;;;15.93;;
76208;SDS011;64990;51.698;-0.292;2023-09-08T03:49:39;30.42;;;17.65;;
76208;SDS011;64990;51.698;-0.292;2023-09-08T03:52:05;39.28;;;18.15;;
76208;SDS011;64990;51.698;-0.292;2023-09-08T03:54:32;25.35;;;17.63;;
76208;SDS011;64990;51.698;-0.292;2023-09-08T03:56:58;30.58;;;18.48;;
76208;SDS011;64990;51.698;-0.292;2023-09-08T03:59:24;27.88;;;17.27;;
76208;SDS011;64990;51.698;-0.292;2023-09-08T04:01:50;32.75;;;17.45;;
76208;SDS011;64990;51.698;-0.292;2023-09-08T04:04:16;34.15;;;15.48;;
76208;SDS011;64990;51.698;-0.292;2023-09-08T04:06:45;30.05;;;18.38;;
76208;SDS011;64990;51.698;-0.292;2023-09-08T04:09:11;33.10;;;18.00;;
76208;SDS011;64990;51.698;-0.292;2023-09-08T04:11:37;33.60;;;17.83;;
76208;SDS011;64990;51.698;-0.292;2023-09-08T04:14:03;26.02;;;16.90;;
76208;SDS011;64990;51.698;-0.292;2023-09-08T04:16:29;23.77;;;14.65;;
76208;SDS011;64990;51.698;-0.292;2023-09-08T04:18:55;24.67;;;15.65;;
76208;SDS011;64990;51.698;-0.292;2023-09-08T04:21:21;26.13;;;15.05;;
76208;SDS011;64990;51.698;-0.292;2023-09-08T04:23:47;26.38;;;16.45;;
76208;SDS011;64990;51.698;-0.292;2023-09-08T04:26:13;29.42;;;16.58;;
76208;SDS011;64990;51.698;-0.292;2023-09-08T04:28:39;21.23;;;13.77;;
76208;SDS011;64990;51.698;-0.292;2023-09-08T04:31:05;21.05;;;13.55;;
76208;SDS011;64990;51.698;-0.292;2023-09-08T04:33:31;23.63;;;15.05;;
76208;SDS011;64990;51.698;-0.292;2023-09-08T04:35:57;24.65;;;14.65;;
76208;SDS011;64990;51.698;-0.292;2023-09-08T04:38:23;18.17;;;12.80;;
76208;SDS011;64990;51.698;-0.292;2023-09-08T04:40:49;19.52;;;13.48;;
76208;SDS011;64990;51.698;-0.292;2023-09-08T04:43:15;24.67;;;11.75;;
76208;SDS011;64990;51.698;-0.292;2023-09-08T04:45:41;27.13;;;13.30;;
76208;SDS011;64990;51.698;-0.292;2023-09-08T04:48:07;26.48;;;10.45;;
76208;SDS011;64990;51.698;-0.292;2023-09-08T04:50:33;19.88;;;11.95;;
76208;SDS011;64990;51.698;-0.292;2023-09-08T04:52:59;16.40;;;11.38;;
76208;SDS011;64990;51.698;-0.292;2023-09-08T04:55:25;26.27;;;11.80;;
76208;SDS011;64990;51.698;-0.292;2023-09-08T04:57:54;19.60;;;10.65;;
76208;SDS011;64990;51.698;-0.292;2023-09-08T05:00:20;17.67;;;10.70;;
76208;SDS011;64990;51.698;-0.292;2023-09-08T05:02:47;18.23;;;10.05;;
76208;SDS011;64990;51.698;-0.292;2023-09-08T05:05:13;14.20;;;9.43;;
76208;SDS011;64990;51.698;-0.292;2023-09-08T05:07:39;24.83;;;10.18;;
76208;SDS011;64990;51.698;-0.292;2023-09-08T05:10:05;18.08;;;10.60;;
76208;SDS011;64990;51.698;-0.292;2023-09-08T05:12:31;15.73;;;10.35;;
76208;SDS011;64990;51.698;-0.292;2023-09-08T05:14:57;20.45;;;9.85;;
76208;SDS011;64990;51.698;-0.292;2023-09-08T05:17:30;17.42;;;10.90;;
76208;SDS011;64990;51.698;-0.292;2023-09-08T05:19:56;12.18;;;9.40;;
76208;SDS011;64990;51.698;-0.292;2023-09-08T05:22:22;16.20;;;9.60;;
76208;SDS011;64990;51.698;-0.292;2023-09-08T05:24:48;16.45;;;11.73;;
76208;SDS011;64990;51.698;-0.292;2023-09-08T05:27:15;24.08;;;16.20;;
76208;SDS011;64990;51.698;-0.292;2023-09-08T05:29:41;30.98;;;15.73;;
76208;SDS011;64990;51.698;-0.292;2023-09-08T05:32:07;28.30;;;17.13;;
76208;SDS011;64990;51.698;-0.292;2023-09-08T05:34:33;24.63;;;15.52;;
76208;SDS011;64990;51.698;-0.292;2023-09-08T05:36:59;25.95;;;16.88;;
76208;SDS011;64990;51.698;-0.292;2023-09-08T05:39:25;36.83;;;21.08;;
76208;SDS011;64990;51.698;-0.292;2023-09-08T05:41:51;38.33;;;22.02;;
76208;SDS011;64990;51.698;-0.292;2023-09-08T05:44:17;36.88;;;19.98;;
76208;SDS011;64990;51.698;-0.292;2023-09-08T05:46:43;36.67;;;21.67;;
76208;SDS011;64990;51.698;-0.292;2023-09-08T05:49:09;34.50;;;20.58;;
76208;SDS011;64990;51.698;-0.292;2023-09-08T05:51:35;47.17;;;25.20;;
76208;SDS011;64990;51.698;-0.292;2023-09-08T05:54:01;44.00;;;25.42;;
76208;SDS011;64990;51.698;-0.292;2023-09-08T05:56:30;41.65;;;25.20;;
76208;SDS011;64990;51.698;-0.292;2023-09-08T05:58:57;36.28;;;22.65;;
76208;SDS011;64990;51.698;-0.292;2023-09-08T06:01:23;39.10;;;22.30;;
76208;SDS011;64990;51.698;-0.292;2023-09-08T06:03:49;33.35;;;19.23;;
76208;SDS011;64990;51.698;-0.292;2023-09-08T06:06:15;37.53;;;20.77;;
76208;SDS011;64990;51.698;-0.292;2023-09-08T06:08:41;35.83;;;20.60;;
76208;SDS011;64990;51.698;-0.292;2023-09-08T06:11:07;40.15;;;21.00;;
76208;SDS011;64990;51.698;-0.292;2023-09-08T06:13:33;32.45;;;18.45;;
76208;SDS011;64990;51.698;-0.292;2023-09-08T06:15:59;28.58;;;16.42;;
76208;SDS011;64990;51.698;-0.292;2023-09-08T06:18:27;29.35;;;14.00;;
76208;SDS011;64990;51.698;-0.292;2023-09-08T06:20:54;15.50;;;10.82;;
76208;SDS011;64990;51.698;-0.292;2023-09-08T06:23:20;16.23;;;10.32;;
76208;SDS011;64990;51.698;-0.292;2023-09-08T06:25:46;21.27;;;10.68;;
76208;SDS011;64990;51.698;-0.292;2023-09-08T06:28:12;17.65;;;9.75;;
76208;SDS011;64990;51.698;-0.292;2023-09-08T06:30:38;21.33;;;10.52;;
76208;SDS011;64990;51.698;-0.292;2023-09-08T06:33:06;31.45;;;11.55;;
76208;SDS011;64990;51.698;-0.292;2023-09-08T06:35:33;21.83;;;13.18;;
76208;SDS011;64990;51.698;-0.292;2023-09-08T06:37:59;34.25;;;22.02;;
76208;SDS011;64990;51.698;-0.292;2023-09-08T06:40:25;44.20;;;23.45;;
76208;SDS011;64990;51.698;-0.292;2023-09-08T06:42:51;39.80;;;22.42;;
76208;SDS011;64990;51.698;-0.292;2023-09-08T06:45:17;29.52;;;21.05;;
76208;SDS011;64990;51.698;-0.292;2023-09-08T06:47:43;35.17;;;21.75;;
76208;SDS011;64990;51.698;-0.292;2023-09-08T06:50:10;36.17;;;21.92;;
76208;SDS011;64990;51.698;-0.292;2023-09-08T06:52:36;31.98;;;21.05;;
76208;SDS011;64990;51.698;-0.292;2023-09-08T06:55:02;41.72;;;21.42;;
76208;SDS011;64990;51.698;-0.292;2023-09-08T06:57:28;36.25;;;23.27;;
76208;SDS011;64990;51.698;-0.292;2023-09-08T06:59:54;33.33;;;20.55;;
76208;SDS011;64990;51.698;-0.292;2023-09-08T07:02:20;34.53;;;21.13;;
76208;SDS011;64990;51.698;-0.292;2023-09-08T07:04:46;38.00;;;21.38;;
76208;SDS011;64990;51.698;-0.292;2023-09-08T07:07:12;37.42;;;22.35;;
76208;SDS011;64990;51.698;-0.292;2023-09-08T07:09:38;45.13;;;23.88;;
76208;SDS011;64990;51.698;-0.292;2023-09-08T07:12:04;42.47;;;25.30;;
76208;SDS011;64990;51.698;-0.292;2023-09-08T07:14:31;50.38;;;26.48;;
76208;SDS011;64990;51.698;-0.292;2023-09-08T07:16:57;45.30;;;26.20;;
76208;SDS011;64990;51.698;-0.292;2023-09-08T07:19:23;37.05;;;24.90;;
76208;SDS011;64990;51.698;-0.292;2023-09-08T07:21:49;45.83;;;27.98;;
76208;SDS011;64990;51.698;-0.292;2023-09-08T07:24:15;48.33;;;26.15;;
76208;SDS011;64990;51.698;-0.292;2023-09-08T07:26:41;52.80;;;27.13;;
76208;SDS011;64990;51.698;-0.292;2023-09-08T07:29:07;48.42;;;27.33;;
76208;SDS011;64990;51.698;-0.292;2023-09-08T07:31:33;55.55;;;27.35;;
76208;SDS011;64990;51.698;-0.292;2023-09-08T07:34:00;39.90;;;25.67;;
76208;SDS011;64990;51.698;-0.292;2023-09-08T07:36:26;42.70;;;28.10;;
76208;SDS011;64990;51.698;-0.292;2023-09-08T07:38:52;44.60;;;26.40;;
76208;SDS011;64990;51.698;-0.292;2023-09-08T07:41:18;41.20;;;26.90;;
76208;SDS011;64990;51.698;-0.292;2023-09-08T07:43:44;46.35;;;28.20;;
76208;SDS011;64990;51.698;-0.292;2023-09-08T07:46:10;43.22;;;25.65;;
76208;SDS011;64990;51.698;-0.292;2023-09-08T07:48:36;45.45;;;26.92;;
76208;SDS011;64990;51.698;-0.292;2023-09-08T07:51:02;50.70;;;26.02;;
76208;SDS011;64990;51.698;-0.292;2023-09-08T07:53:28;41.17;;;25.75;;
76208;SDS011;64990;51.698;-0.292;2023-09-08T07:55:55;43.00;;;27.55;;
76208;SDS011;64990;51.698;-0.292;2023-09-08T07:58:21;46.30;;;25.75;;
76208;SDS011;64990;51.698;-0.292;2023-09-08T08:00:47;59.17;;;24.08;;
76208;SDS011;64990;51.698;-0.292;2023-09-08T08:03:13;37.25;;;25.08;;
76208;SDS011;64990;51.698;-0.292;2023-09-08T08:05:39;56.03;;;23.80;;
76208;SDS011;64990;51.698;-0.292;2023-09-08T08:08:05;33.38;;;21.17;;
76208;SDS011;64990;51.698;-0.292;2023-09-08T08:10:34;23.17;;;15.35;;
76208;SDS011;64990;51.698;-0.292;2023-09-08T08:13:00;33.88;;;15.50;;
76208;SDS011;64990;51.698;-0.292;2023-09-08T08:15:35;34.05;;;15.52;;
76208;SDS011;64990;51.698;-0.292;2023-09-08T08:18:02;29.08;;;14.45;;
76208;SDS011;64990;51.698;-0.292;2023-09-08T08:20:29;23.88;;;13.13;;
76208;SDS011;64990;51.698;-0.292;2023-09-08T08:22:59;17.67;;;10.98;;
76208;SDS011;64990;51.698;-0.292;2023-09-08T08:25:25;24.42;;;10.80;;
76208;SDS011;64990;51.698;-0.292;2023-09-08T08:27:51;13.93;;;9.52;;
76208;SDS011;64990;51.698;-0.292;2023-09-08T08:30:17;25.73;;;9.70;;
76208;SDS011;64990;51.698;-0.292;2023-09-08T08:32:43;19.35;;;10.52;;
76208;SDS011;64990;51.698;-0.292;2023-09-08T08:35:10;20.52;;;10.43;;
76208;SDS011;64990;51.698;-0.292;2023-09-08T08:37:38;30.67;;;13.45;;
76208;SDS011;64990;51.698;-0.292;2023-09-08T08:40:04;21.48;;;12.18;;
76208;SDS011;64990;51.698;-0.292;2023-09-08T08:42:32;25.58;;;12.60;;
76208;SDS011;64990;51.698;-0.292;2023-09-08T08:44:58;19.92;;;11.35;;
76208;SDS011;64990;51.698;-0.292;2023-09-08T08:47:25;16.50;;;11.15;;
76208;SDS011;64990;51.698;-0.292;2023-09-08T08:49:51;21.13;;;10.00;;
76208;SDS011;64990;51.698;-0.292;2023-09-08T08:52:18;22.58;;;10.23;;
76208;SDS011;64990;51.698;-0.292;2023-09-08T08:54:45;19.75;;;8.77;;
76208;SDS011;64990;51.698;-0.292;2023-09-08T08:57:11;19.30;;;9.48;;
76208;SDS011;64990;51.698;-0.292;2023-09-08T08:59:38;15.65;;;7.03;;
76208;SDS011;64990;51.698;-0.292;2023-09-08T09:02:06;17.08;;;7.30;;
76208;SDS011;64990;51.698;-0.292;2023-09-08T09:04:33;11.68;;;6.18;;
76208;SDS011;64990;51.698;-0.292;2023-09-08T09:06:59;16.25;;;7.10;;
76208;SDS011;64990;51.698;-0.292;2023-09-08T09:09:25;13.43;;;6.50;;
76208;SDS011;64990;51.698;-0.292;2023-09-08T09:11:51;19.75;;;9.60;;
76208;SDS011;64990;51.698;-0.292;2023-09-08T09:14:17;22.75;;;9.45;;
76208;SDS011;64990;51.698;-0.292;2023-09-08T09:16:44;19.00;;;7.40;;
76208;SDS011;64990;51.698;-0.292;2023-09-08T09:19:17;13.57;;;7.47;;
76208;SDS011;64990;51.698;-0.292;2023-09-08T09:21:46;14.55;;;8.25;;
76208;SDS011;64990;51.698;-0.292;2023-09-08T09:24:16;22.88;;;9.02;;
76208;SDS011;64990;51.698;-0.292;2023-09-08T09:26:43;15.93;;;8.02;;
76208;SDS011;64990;51.698;-0.292;2023-09-08T09:29:15;13.93;;;7.15;;
76208;SDS011;64990;51.698;-0.292;2023-09-08T09:31:50;12.10;;;7.32;;
76208;SDS011;64990;51.698;-0.292;2023-09-08T09:34:17;12.65;;;8.32;;
76208;SDS011;64990;51.698;-0.292;2023-09-08T09:36:45;13.43;;;8.45;;
76208;SDS011;64990;51.698;-0.292;2023-09-08T09:39:13;19.20;;;9.13;;
76208;SDS011;64990;51.698;-0.292;2023-09-08T09:41:39;12.30;;;7.22;;
76208;SDS011;64990;51.698;-0.292;2023-09-08T09:44:06;15.68;;;8.50;;
76208;SDS011;64990;51.698;-0.292;2023-09-08T09:46:33;19.25;;;7.88;;
76208;SDS011;64990;51.698;-0.292;2023-09-08T09:48:59;18.45;;;8.40;;
76208;SDS011;64990;51.698;-0.292;2023-09-08T09:51:25;25.65;;;8.05;;
76208;SDS011;64990;51.698;-0.292;2023-09-08T09:53:51;13.98;;;7.57;;
76208;SDS011;64990;51.698;-0.292;2023-09-08T09:56:19;9.95;;;7.03;;
76208;SDS011;64990;51.698;-0.292;2023-09-08T09:58:45;15.73;;;5.93;;
76208;SDS011;64990;51.698;-0.292;2023-09-08T10:01:12;9.50;;;5.85;;
76208;SDS011;64990;51.698;-0.292;2023-09-08T10:03:39;13.48;;;6.60;;
76208;SDS011;64990;51.698;-0.292;2023-09-08T10:06:05;10.95;;;7.35;;
76208;SDS011;64990;51.698;-0.292;2023-09-08T10:08:32;10.60;;;6.22;;
76208;SDS011;64990;51.698;-0.292;2023-09-08T10:11:01;9.98;;;6.70;;
76208;SDS011;64990;51.698;-0.292;2023-09-08T10:13:31;11.35;;;6.45;;
76208;SDS011;64990;51.698;-0.292;2023-09-08T10:15:59;10.32;;;6.32;;
76208;SDS011;64990;51.698;-0.292;2023-09-08T10:18:26;8.40;;;5.88;;
76208;SDS011;64990;51.698;-0.292;2023-09-08T10:20:53;16.25;;;7.10;;
76208;SDS011;64990;51.698;-0.292;2023-09-08T10:23:22;19.90;;;6.47;;
76208;SDS011;64990;51.698;-0.292;2023-09-08T10:25:53;37.90;;;7.03;;
76208;SDS011;64990;51.698;-0.292;2023-09-08T10:28:21;10.45;;;5.85;;
76208;SDS011;64990;51.698;-0.292;2023-09-08T10:30:47;13.57;;;5.55;;
76208;SDS011;64990;51.698;-0.292;2023-09-08T10:33:14;21.40;;;6.18;;
76208;SDS011;64990;51.698;-0.292;2023-09-08T10:35:41;18.65;;;6.90;;
76208;SDS011;64990;51.698;-0.292;2023-09-08T10:40:49;11.77;;;5.18;;
76208;SDS011;64990;51.698;-0.292;2023-09-08T10:43:16;21.17;;;8.27;;
76208;SDS011;64990;51.698;-0.292;2023-09-08T10:45:42;8.90;;;5.35;;
76208;SDS011;64990;51.698;-0.292;2023-09-08T10:48:09;15.48;;;6.70;;
76208;SDS011;64990;51.698;-0.292;2023-09-08T10:50:38;11.38;;;5.30;;
76208;SDS011;64990;51.698;-0.292;2023-09-08T10:55:41;17.90;;;6.90;;
76208;SDS011;64990;51.698;-0.292;2023-09-08T10:58:09;15.80;;;7.30;;
76208;SDS011;64990;51.698;-0.292;2023-09-08T11:00:51;19.48;;;6.95;;
76208;SDS011;64990;51.698;-0.292;2023-09-08T11:03:27;36.90;;;7.88;;
76208;SDS011;64990;51.698;-0.292;2023-09-08T11:05:54;18.98;;;5.68;;
76208;SDS011;64990;51.698;-0.292;2023-09-08T11:08:20;11.52;;;6.68;;
76208;SDS011;64990;51.698;-0.292;2023-09-08T11:10:46;8.85;;;5.03;;
76208;SDS011;64990;51.698;-0.292;2023-09-08T11:13:12;13.20;;;4.38;;
76208;SDS011;64990;51.698;-0.292;2023-09-08T11:15:38;17.25;;;6.28;;
76208;SDS011;64990;51.698;-0.292;2023-09-08T11:18:04;13.15;;;5.65;;
76208;SDS011;64990;51.698;-0.292;2023-09-08T11:20:31;16.67;;;6.15;;
76208;SDS011;64990;51.698;-0.292;2023-09-08T11:22:57;12.98;;;6.72;;
76208;SDS011;64990;51.698;-0.292;2023-09-08T11:25:24;11.80;;;5.63;;
76208;SDS011;64990;51.698;-0.292;2023-09-08T11:27:50;11.38;;;5.88;;
76208;SDS011;64990;51.698;-0.292;2023-09-08T11:30:16;13.60;;;5.55;;
76208;SDS011;64990;51.698;-0.292;2023-09-08T11:32:43;9.73;;;5.25;;
76208;SDS011;64990;51.698;-0.292;2023-09-08T11:35:09;14.02;;;7.20;;
76208;SDS011;64990;51.698;-0.292;2023-09-08T11:37:42;10.23;;;5.03;;
76208;SDS011;64990;51.698;-0.292;2023-09-08T11:40:09;13.23;;;6.25;;
76208;SDS011;64990;51.698;-0.292;2023-09-08T11:42:39;10.93;;;5.40;;
76208;SDS011;64990;51.698;-0.292;2023-09-08T11:45:15;17.85;;;5.13;;
76208;SDS011;64990;51.698;-0.292;2023-09-08T11:50:14;7.53;;;4.68;;
76208;SDS011;64990;51.698;-0.292;2023-09-08T11:52:44;8.30;;;4.00;;
76208;SDS011;64990;51.698;-0.292;2023-09-08T11:55:10;12.57;;;4.95;;
76208;SDS011;64990;51.698;-0.292;2023-09-08T11:57:37;7.28;;;4.45;;
76208;SDS011;64990;51.698;-0.292;2023-09-08T12:00:04;13.35;;;4.57;;
76208;SDS011;64990;51.698;-0.292;2023-09-08T12:02:34;13.63;;;4.13;;
76208;SDS011;64990;51.698;-0.292;2023-09-08T12:05:01;9.77;;;4.47;;
76208;SDS011;64990;51.698;-0.292;2023-09-08T12:07:28;10.90;;;4.72;;
76208;SDS011;64990;51.698;-0.292;2023-09-08T12:09:54;13.88;;;4.93;;
76208;SDS011;64990;51.698;-0.292;2023-09-08T12:12:20;8.50;;;4.63;;
76208;SDS011;64990;51.698;-0.292;2023-09-08T12:14:46;11.15;;;5.05;;
76208;SDS011;64990;51.698;-0.292;2023-09-08T12:17:12;9.73;;;4.50;;
76208;SDS011;64990;51.698;-0.292;2023-09-08T12:19:42;11.40;;;4.03;;
76208;SDS011;64990;51.698;-0.292;2023-09-08T12:22:08;12.63;;;4.22;;
76208;SDS011;64990;51.698;-0.292;2023-09-08T12:27:25;15.52;;;4.53;;
76208;SDS011;64990;51.698;-0.292;2023-09-08T12:29:58;6.55;;;4.38;;
76208;SDS011;64990;51.698;-0.292;2023-09-08T12:32:26;8.32;;;4.53;;
76208;SDS011;64990;51.698;-0.292;2023-09-08T12:34:52;10.77;;;6.25;;
76208;SDS011;64990;51.698;-0.292;2023-09-08T12:37:24;9.85;;;4.80;;
76208;SDS011;64990;51.698;-0.292;2023-09-08T12:39:55;11.32;;;4.13;;
76208;SDS011;64990;51.698;-0.292;2023-09-08T12:42:21;9.85;;;5.70;;
76208;SDS011;64990;51.698;-0.292;2023-09-08T12:44:50;9.93;;;4.18;;
76208;SDS011;64990;51.698;-0.292;2023-09-08T12:47:17;9.82;;;4.82;;
76208;SDS011;64990;51.698;-0.292;2023-09-08T12:49:44;7.28;;;4.35;;
76208;SDS011;64990;51.698;-0.292;2023-09-08T12:52:10;7.53;;;4.18;;
76208;SDS011;64990;51.698;-0.292;2023-09-08T12:54:36;6.88;;;4.88;;
76208;SDS011;64990;51.698;-0.292;2023-09-08T12:57:02;9.73;;;4.05;;
76208;SDS011;64990;51.698;-0.292;2023-09-08T12:59:28;15.05;;;4.43;;
76208;SDS011;64990;51.698;-0.292;2023-09-08T13:01:54;9.18;;;4.60;;
76208;SDS011;64990;51.698;-0.292;2023-09-08T13:04:20;10.85;;;4.40;;
76208;SDS011;64990;51.698;-0.292;2023-09-08T13:06:47;7.22;;;3.67;;
76208;SDS011;64990;51.698;-0.292;2023-09-08T13:09:14;10.65;;;4.68;;
76208;SDS011;64990;51.698;-0.292;2023-09-08T13:11:40;7.57;;;4.72;;
76208;SDS011;64990;51.698;-0.292;2023-09-08T13:14:06;18.27;;;4.70;;
76208;SDS011;64990;51.698;-0.292;2023-09-08T13:16:32;8.60;;;4.07;;
76208;SDS011;64990;51.698;-0.292;2023-09-08T13:18:59;11.48;;;4.40;;
76208;SDS011;64990;51.698;-0.292;2023-09-08T13:21:25;9.02;;;4.25;;
76208;SDS011;64990;51.698;-0.292;2023-09-08T13:23:51;9.40;;;4.05;;
76208;SDS011;64990;51.698;-0.292;2023-09-08T13:26:17;7.78;;;4.30;;
76208;SDS011;64990;51.698;-0.292;2023-09-08T13:28:43;13.10;;;5.93;;
76208;SDS011;64990;51.698;-0.292;2023-09-08T13:31:09;9.25;;;4.95;;
76208;SDS011;64990;51.698;-0.292;2023-09-08T13:33:35;20.95;;;6.15;;
76208;SDS011;64990;51.698;-0.292;2023-09-08T13:36:01;6.65;;;4.40;;
76208;SDS011;64990;51.698;-0.292;2023-09-08T13:38:27;10.73;;;4.93;;
76208;SDS011;64990;51.698;-0.292;2023-09-08T13:40:52;6.47;;;3.45;;
76208;SDS011;64990;51.698;-0.292;2023-09-08T13:43:19;8.00;;;4.82;;
76208;SDS011;64990;51.698;-0.292;2023-09-08T13:45:45;8.60;;;5.25;;
76208;SDS011;64990;51.698;-0.292;2023-09-08T13:48:11;15.32;;;7.10;;
76208;SDS011;64990;51.698;-0.292;2023-09-08T13:50:40;7.25;;;4.50;;
76208;SDS011;64990;51.698;-0.292;2023-09-08T13:53:06;15.00;;;5.00;;
76208;SDS011;64990;51.698;-0.292;2023-09-08T13:55:32;15.90;;;5.13;;
76208;SDS011;64990;51.698;-0.292;2023-09-08T13:57:58;9.60;;;4.05;;
76208;SDS011;64990;51.698;-0.292;2023-09-08T14:00:24;9.90;;;4.63;;
76208;SDS011;64990;51.698;-0.292;2023-09-08T14:02:50;11.00;;;3.95;;
76208;SDS011;64990;51.698;-0.292;2023-09-08T14:05:16;8.27;;;4.63;;
76208;SDS011;64990;51.698;-0.292;2023-09-08T14:07:42;11.18;;;4.15;;
76208;SDS011;64990;51.698;-0.292;2023-09-08T14:10:08;8.30;;;4.93;;
76208;SDS011;64990;51.698;-0.292;2023-09-08T14:12:34;8.65;;;4.35;;
76208;SDS011;64990;51.698;-0.292;2023-09-08T14:15:00;10.15;;;4.70;;
76208;SDS011;64990;51.698;-0.292;2023-09-08T14:17:27;12.32;;;5.53;;
76208;SDS011;64990;51.698;-0.292;2023-09-08T14:19:53;11.60;;;4.82;;
76208;SDS011;64990;51.698;-0.292;2023-09-08T14:22:18;13.75;;;4.63;;
76208;SDS011;64990;51.698;-0.292;2023-09-08T14:24:44;16.88;;;4.45;;
76208;SDS011;64990;51.698;-0.292;2023-09-08T14:27:11;8.75;;;5.20;;